Time;durP1;ratioP1;P1;durP2;ratioP2;P2;SDS_P1;SDS_P2;PMS_P1;PMS_P2;Temp;Humidity;BMP_temperature;BMP_pressure;BME280_temperature;BME280_humidity;BME280_pressure;Samples;Min_cycle;Max_cycle;Signal;HPM_P1;HPM_P2
2022/02/20 00:04:46;;;;;;;19.60;7.20;;;;;;;0.61;55.78;98550.02;220098;1271;25401;-70
2022/02/20 00:09:49;;;;;;;20.00;7.40;;;;;;;0.52;56.13;98545.77;220401;1271;25146;-70
2022/02/20 00:15:06;;;;;;;15.30;5.60;;;;;;;0.53;56.39;98542.25;219954;1271;23431;-69
2022/02/20 00:20:09;;;;;;;16.90;5.70;;;;;;;0.62;56.37;98536.06;219096;1271;24788;-71
2022/02/20 00:25:20;;;;;;;14.10;5.90;;;;;;;0.68;56.36;98540.27;219069;1271;24383;-70
2022/02/20 00:30:25;;;;;;;13.30;5.20;;;;;;;0.71;56.44;98539.97;219414;1271;24247;-70
2022/02/20 00:41:05;;;;;;;14.00;5.40;;;;;;;0.72;56.47;98532.88;219486;1271;24400;-71
2022/02/20 00:46:09;;;;;;;11.50;4.70;;;;;;;0.69;56.63;98520.25;219282;1271;22602;-70
2022/02/20 00:51:35;;;;;;;;;;;;;;;;;;;;;
2022/02/20 00:56:58;;;;;;;13.20;4.90;;;;;;;0.55;56.51;98499.11;219404;1271;24238;-69
2022/02/20 01:02:11;;;;;;;11.10;4.10;;;;;;;0.49;56.71;98488.29;219175;1271;25341;-70
2022/02/20 01:07:39;;;;;;;11.50;4.90;;;;;;;0.47;56.77;98472.57;218917;1271;26412;-70
2022/02/20 01:12:47;;;;;;;12.90;5.10;;;;;;;0.44;56.61;98466.86;219285;1271;22604;-69
2022/02/20 01:17:54;;;;;;;16.30;6.40;;;;;;;0.36;56.68;98470.23;219547;1271;22541;-70
2022/02/20 01:23:06;;;;;;;13.30;6.20;;;;;;;0.30;56.80;98470.83;219337;1271;22528;-70
2022/02/20 01:28:19;;;;;;;19.80;7.30;;;;;;;0.23;56.85;98463.28;220245;1271;22906;-71
2022/02/20 01:33:24;;;;;;;16.00;6.40;;;;;;;0.16;56.94;98455.35;218941;1271;22778;-69
2022/02/20 01:38:41;;;;;;;16.30;6.30;;;;;;;0.10;57.23;98453.66;219967;1271;22541;-70
2022/02/20 01:43:54;;;;;;;15.80;6.00;;;;;;;0.09;57.44;98446.33;220020;1271;22649;-70
2022/02/20 01:49:07;;;;;;;15.60;5.20;;;;;;;0.11;57.48;98441.42;219875;1271;22617;-70
2022/02/20 01:54:18;;;;;;;13.50;6.50;;;;;;;0.14;57.59;98426.96;219155;1271;22547;-69
2022/02/20 01:59:36;;;;;;;;;;;;;;;;;;;;;
2022/02/20 02:04:58;;;;;;;13.80;6.10;;;;;;;0.11;57.52;98408.11;219323;1271;22904;-70
2022/02/20 02:10:13;;;;;;;17.00;6.00;;;;;;;0.07;57.56;98392.43;218902;1271;24339;-70
2022/02/20 02:15:50;;;;;;;15.30;5.70;;;;;;;0.01;57.65;98384.51;219490;1270;22606;-70
2022/02/20 02:21:14;;;;;;;11.40;4.80;;;;;;;-0.06;57.94;98377.33;218810;1272;22633;-70
2022/02/20 02:26:53;;;;;;;11.80;4.90;;;;;;;-0.06;58.18;98361.55;218869;1273;25359;-71
2022/02/20 02:32:20;;;;;;;11.90;4.90;;;;;;;-0.01;58.15;98354.40;220019;1271;25318;-71
2022/02/20 02:37:26;;;;;;;8.30;3.10;;;;;;;0.04;58.38;98347.44;219936;1271;24349;-70
2022/02/20 02:42:34;;;;;;;6.80;2.40;;;;;;;0.24;58.09;98344.87;219197;1271;24110;-70
2022/02/20 02:48:11;;;;;;;4.20;2.00;;;;;;;0.54;57.86;98334.98;219227;1271;23844;-70
2022/02/20 02:53:22;;;;;;;4.80;2.30;;;;;;;0.90;57.01;98314.83;219213;1271;22558;-70
2022/02/20 02:58:38;;;;;;;6.20;2.90;;;;;;;1.12;56.42;98304.94;219248;1271;22638;-70
2022/02/20 03:03:44;;;;;;;6.30;2.80;;;;;;;1.23;56.08;98305.10;218973;1273;24246;-70
2022/02/20 03:08:58;;;;;;;6.00;2.50;;;;;;;1.24;56.07;98297.52;220321;1271;22697;-70
2022/02/20 03:14:06;;;;;;;5.40;2.30;;;;;;;1.27;55.96;98284.41;219470;1271;23033;-69
2022/02/20 03:19:09;;;;;;;7.00;2.90;;;;;;;1.32;55.28;98275.33;220179;1271;22591;-68
2022/02/20 03:24:30;;;;;;;6.20;2.60;;;;;;;1.44;55.21;98271.12;220207;1271;24308;-69
2022/02/20 03:29:38;;;;;;;5.60;2.40;;;;;;;1.49;55.04;98267.67;220026;1271;24346;-70
2022/02/20 03:35:10;;;;;;;6.50;2.40;;;;;;;1.54;54.67;98253.02;220152;1271;25394;-69
2022/02/20 03:40:47;;;;;;;5.10;2.10;;;;;;;1.65;54.70;98250.27;219097;1271;22580;-70
2022/02/20 03:45:51;;;;;;;4.90;2.20;;;;;;;1.74;54.29;98242.16;219173;1271;25389;-70
2022/02/20 03:50:55;;;;;;;5.10;2.30;;;;;;;1.80;54.10;98232.13;219277;1271;22706;-71
2022/02/20 03:56:00;;;;;;;6.00;2.20;;;;;;;1.84;53.62;98232.72;219068;1271;22541;-70
2022/02/20 04:01:10;;;;;;;5.20;2.20;;;;;;;1.88;53.59;98233.19;219325;1271;22633;-70
2022/02/20 04:06:23;;;;;;;6.60;2.60;;;;;;;1.93;53.55;98230.58;221050;1271;22546;-70
2022/02/20 04:11:31;;;;;;;5.30;2.70;;;;;;;1.97;53.26;98212.58;220657;1271;25255;-69
2022/02/20 04:17:12;;;;;;;7.30;2.80;;;;;;;1.97;53.30;98200.50;219809;1271;25213;-70
2022/02/20 04:22:28;;;;;;;5.40;2.40;;;;;;;2.00;53.17;98186.20;219712;1270;26371;-70
2022/02/20 04:28:06;;;;;;;6.50;2.50;;;;;;;2.01;53.15;98162.50;219082;1271;22637;-70
2022/02/20 04:33:23;;;;;;;4.70;2.30;;;;;;;2.03;53.14;98143.62;219614;1271;25359;-70
2022/02/20 04:38:41;;;;;;;4.40;2.20;;;;;;;2.04;52.92;98131.04;219909;1271;24246;-70
2022/02/20 04:44:07;;;;;;;6.30;2.50;;;;;;;2.05;52.90;98124.77;219508;1271;25370;-70
2022/02/20 04:49:26;;;;;;;9.80;3.90;;;;;;;2.06;52.88;98120.38;219718;1271;22558;-70
2022/02/20 04:55:02;;;;;;;9.50;4.10;;;;;;;2.05;52.85;98107.76;219775;1271;24878;-70
2022/02/20 05:00:08;;;;;;;7.90;3.30;;;;;;;2.07;53.06;98103.65;219800;1271;22996;-70
2022/02/20 05:05:32;;;;;;;7.80;3.30;;;;;;;2.10;52.88;98107.63;219621;1271;23844;-70
2022/02/20 05:10:49;;;;;;;10.40;3.30;;;;;;;2.14;52.66;98096.73;220528;1271;25267;-69
2022/02/20 05:16:07;;;;;;;6.50;2.60;;;;;;;2.20;52.65;98087.77;219509;1271;26549;-70
2022/02/20 05:21:33;;;;;;;5.90;2.30;;;;;;;2.27;52.19;98082.00;219949;1270;25316;-70
2022/02/20 05:26:50;;;;;;;6.20;3.00;;;;;;;2.34;52.24;98074.66;219901;1271;22728;-69
2022/02/20 05:32:06;;;;;;;6.00;2.50;;;;;;;2.42;52.26;98083.77;219636;1271;22586;-70
2022/02/20 05:37:50;;;;;;;6.90;1.80;;;;;;;2.50;52.27;98087.80;219356;1271;22573;-70
2022/02/20 05:43:12;;;;;;;5.70;2.10;;;;;;;2.63;52.82;98085.41;219666;1271;25488;-70
2022/02/20 05:48:22;;;;;;;5.20;1.90;;;;;;;2.73;53.09;98084.16;219977;1271;23985;-70
2022/02/20 05:53:45;;;;;;;2.90;1.50;;;;;;;2.80;53.47;98090.04;219945;1271;23885;-70
2022/02/20 05:58:58;;;;;;;5.00;2.20;;;;;;;2.87;53.96;98099.08;219747;1271;22649;-70
2022/02/20 06:04:01;;;;;;;4.70;1.50;;;;;;;2.92;54.22;98103.52;220514;1271;26494;-70
2022/02/20 06:09:36;;;;;;;5.20;1.90;;;;;;;2.95;54.57;98098.54;219574;1271;22545;-70
2022/02/20 06:14:58;;;;;;;7.50;2.20;;;;;;;2.94;55.21;98109.18;219479;1271;25422;-69
2022/02/20 06:20:20;;;;;;;3.40;1.50;;;;;;;2.93;56.89;98102.92;219597;1271;25434;-70
2022/02/20 06:26:25;;;;;;;5.20;1.80;;;;;;;2.86;59.34;98101.71;219450;1271;22548;-70
2022/02/20 06:31:29;;;;;;;4.10;1.60;;;;;;;2.77;59.92;98107.27;219618;1271;22576;-70
2022/02/20 06:36:32;;;;;;;4.90;1.70;;;;;;;2.64;61.92;98115.94;219445;1271;25388;-70
2022/02/20 06:41:47;;;;;;;5.80;2.10;;;;;;;2.40;65.44;98112.40;219303;1271;23082;-70
2022/02/20 06:46:50;;;;;;;4.30;2.00;;;;;;;2.19;68.46;98120.40;219373;1271;24220;-69
2022/02/20 06:51:57;;;;;;;4.30;1.70;;;;;;;2.02;69.45;98131.27;219698;1271;22534;-71
2022/02/20 06:57:26;;;;;;;4.30;1.50;;;;;;;1.91;70.02;98132.84;219073;1271;22543;-69
2022/02/20 07:02:31;;;;;;;5.60;2.20;;;;;;;1.79;71.67;98128.96;219235;1271;22550;-70
2022/02/20 07:07:35;;;;;;;6.30;2.00;;;;;;;1.63;73.04;98117.16;219345;1271;22632;-70
2022/02/20 07:12:44;;;;;;;3.90;2.20;;;;;;;1.59;73.67;98121.60;219548;1271;25547;-71
2022/02/20 07:17:46;;;;;;;3.80;2.10;;;;;;;1.66;75.10;98113.39;220256;1271;22566;-69
2022/02/20 07:22:49;;;;;;;5.30;2.80;;;;;;;1.66;76.30;98122.20;217049;1271;3474562;-69
2022/02/20 07:27:55;;;;;;;5.30;3.30;;;;;;;1.61;77.36;98125.08;219400;1271;24371;-70
2022/02/20 07:33:12;;;;;;;5.00;3.20;;;;;;;1.54;77.12;98122.45;219475;1271;22703;-70
2022/02/20 07:38:15;;;;;;;5.20;3.20;;;;;;;1.54;77.02;98119.21;219464;1270;24445;-70
2022/02/20 07:43:18;;;;;;;7.60;4.30;;;;;;;1.60;77.87;98111.90;219246;1270;24547;-70
2022/02/20 07:48:20;;;;;;;5.10;3.80;;;;;;;1.68;79.16;98109.02;219191;1271;22563;-70
2022/02/20 07:53:23;;;;;;;6.10;3.90;;;;;;;1.67;79.18;98105.39;220155;1271;22632;-69
2022/02/20 07:58:26;;;;;;;9.40;3.80;;;;;;;1.66;79.73;98109.13;219354;1271;24415;-70
2022/02/20 08:03:32;;;;;;;6.00;4.00;;;;;;;1.68;79.96;98096.41;220455;1271;22617;-69
2022/02/20 08:08:42;;;;;;;6.30;4.00;;;;;;;1.75;80.61;98094.70;219945;1270;22810;-68
2022/02/20 08:13:48;;;;;;;10.20;4.60;;;;;;;1.83;80.76;98092.40;219973;1271;24412;-69
2022/02/20 08:18:54;;;;;;;7.20;4.30;;;;;;;1.93;80.94;98094.14;219324;1271;22619;-70
2022/02/20 08:23:57;;;;;;;8.10;4.00;;;;;;;1.89;80.63;98101.81;220381;1271;24441;-70
2022/02/20 08:29:06;;;;;;;9.10;4.70;;;;;;;1.74;80.62;98097.81;219364;1271;22649;-69
2022/02/20 08:34:08;;;;;;;6.90;3.40;;;;;;;1.63;80.63;98103.43;219059;1270;22539;-70
2022/02/20 08:39:12;;;;;;;8.60;4.00;;;;;;;1.58;81.33;98102.64;219509;1271;22628;-70
2022/02/20 08:44:22;;;;;;;10.20;4.20;;;;;;;1.56;81.58;98097.39;219296;1271;24249;-70
2022/02/20 08:49:46;;;;;;;8.80;3.70;;;;;;;1.64;81.62;98097.80;219185;1271;24448;-70
2022/02/20 08:54:54;;;;;;;6.10;3.30;;;;;;;1.80;81.79;98091.58;219499;1271;25898;-71
2022/02/20 08:59:58;;;;;;;8.70;4.20;;;;;;;2.07;81.89;98085.41;219501;1271;24248;-70
2022/02/20 09:05:00;;;;;;;7.70;3.50;;;;;;;2.43;81.80;98086.78;219568;1271;24426;-70
2022/02/20 09:10:09;;;;;;;9.50;4.30;;;;;;;2.78;81.33;98083.83;219652;1271;25443;-70
2022/02/20 09:15:12;;;;;;;9.50;4.60;;;;;;;3.09;80.79;98086.30;220691;1271;25837;-70
2022/02/20 09:20:15;;;;;;;6.30;3.20;;;;;;;3.36;80.04;98082.64;220730;1271;24120;-69
2022/02/20 09:25:20;;;;;;;5.30;2.80;;;;;;;3.58;79.34;98085.85;220047;1271;24273;-70
2022/02/20 09:30:23;;;;;;;4.10;2.60;;;;;;;3.76;78.73;98081.24;220318;1271;22560;-70
2022/02/20 09:35:32;;;;;;;5.60;2.30;;;;;;;3.88;77.95;98083.45;220902;1270;24700;-71
2022/02/20 09:40:34;;;;;;;3.30;1.80;;;;;;;3.94;77.34;98081.77;220725;1271;25423;-70
2022/02/20 09:45:37;;;;;;;6.50;2.20;;;;;;;4.00;76.93;98089.84;220335;1271;25659;-71
2022/02/20 09:50:41;;;;;;;3.20;2.30;;;;;;;4.10;76.85;98095.81;220481;1271;24335;-70
2022/02/20 09:55:47;;;;;;;5.10;2.60;;;;;;;4.26;76.27;98106.70;219519;1271;22551;-70
2022/02/20 10:00:57;;;;;;;4.90;2.90;;;;;;;4.35;75.57;98116.84;220508;1271;24237;-70
2022/02/20 10:06:20;;;;;;;5.10;2.20;;;;;;;4.36;75.14;98120.66;220309;1271;24261;-70
2022/02/20 10:11:34;;;;;;;6.20;2.30;;;;;;;4.31;75.06;98132.21;219229;1271;22594;-70
2022/02/20 10:16:37;;;;;;;2.90;2.00;;;;;;;4.33;75.22;98138.91;219608;1271;23984;-69
2022/02/20 10:22:04;;;;;;;4.20;1.70;;;;;;;4.33;75.33;98133.74;219610;1271;24246;-70
2022/02/20 10:27:31;;;;;;;3.10;1.40;;;;;;;4.32;75.08;98137.09;219517;1273;22619;-71
2022/02/20 10:32:36;;;;;;;2.40;1.20;;;;;;;4.36;75.15;98130.68;220141;1271;22549;-69
2022/02/20 10:37:39;;;;;;;5.50;2.70;;;;;;;4.37;75.14;98133.54;219239;1272;22571;-70
2022/02/20 10:42:42;;;;;;;3.40;1.50;;;;;;;4.37;75.17;98132.16;219486;1271;22570;-69
2022/02/20 10:47:47;;;;;;;4.90;2.50;;;;;;;4.38;75.08;98130.10;219512;1271;22546;-70
2022/02/20 10:53:19;;;;;;;2.20;1.40;;;;;;;4.46;75.00;98123.59;219548;1271;22611;-70
2022/02/20 10:58:30;;;;;;;2.30;1.20;;;;;;;4.59;74.70;98113.04;219609;1270;22570;-69
2022/02/20 11:03:40;;;;;;;1.50;1.00;;;;;;;4.70;74.39;98111.23;219413;1271;22631;-70
2022/02/20 11:08:52;;;;;;;2.80;1.30;;;;;;;4.83;74.06;98106.29;219730;1271;25323;-70
2022/02/20 11:13:59;;;;;;;3.20;2.20;;;;;;;4.99;74.24;98105.67;220476;1270;22710;-70
2022/02/20 11:19:05;;;;;;;2.10;1.40;;;;;;;5.15;73.67;98107.25;219472;1271;22631;-70
2022/02/20 11:24:09;;;;;;;1.90;1.30;;;;;;;5.36;73.31;98108.74;218974;1272;22569;-70
2022/02/20 11:29:13;;;;;;;4.20;1.50;;;;;;;5.53;72.59;98106.93;219054;1271;22572;-71
2022/02/20 11:34:16;;;;;;;2.60;1.60;;;;;;;5.62;71.97;98102.55;219473;1271;22615;-70
2022/02/20 11:39:33;;;;;;;4.90;2.20;;;;;;;5.72;71.65;98110.84;219586;1271;22505;-70
2022/02/20 11:44:55;;;;;;;4.40;2.10;;;;;;;5.88;71.36;98109.45;220302;1271;25492;-70
2022/02/20 11:50:22;;;;;;;2.30;1.60;;;;;;;6.06;70.59;98108.48;220179;1271;25614;-70
2022/02/20 11:55:29;;;;;;;4.90;1.90;;;;;;;6.35;70.12;98106.17;220587;1272;25425;-70
2022/02/20 12:00:32;;;;;;;5.00;2.20;;;;;;;6.60;69.23;98109.34;219637;1271;24646;-71
2022/02/20 12:05:36;;;;;;;3.80;1.90;;;;;;;6.71;68.32;98102.08;220467;1271;23697;-70
2022/02/20 12:10:39;;;;;;;2.70;1.70;;;;;;;6.68;67.71;98106.66;220091;1271;22569;-70
2022/02/20 12:15:43;;;;;;;2.30;1.30;;;;;;;6.64;67.24;98106.38;220025;1271;22546;-70
2022/02/20 12:20:56;;;;;;;3.10;1.40;;;;;;;6.61;66.08;98113.38;220359;1271;22639;-70
2022/02/20 12:26:46;;;;;;;4.70;2.20;;;;;;;6.65;66.00;98113.77;220477;1271;22718;-70
2022/02/20 12:32:09;;;;;;;4.80;1.80;;;;;;;6.76;65.60;98114.27;220278;1271;25303;-70
2022/02/20 12:37:14;;;;;;;3.70;1.90;;;;;;;7.00;65.39;98115.29;220315;1271;25338;-67
2022/02/20 12:42:21;;;;;;;2.20;1.50;;;;;;;7.27;64.24;98111.45;219602;1271;25380;-71
2022/02/20 12:47:35;;;;;;;4.10;1.80;;;;;;;7.53;63.77;98099.88;220563;1271;24391;-74
2022/02/20 12:53:03;;;;;;;3.20;2.00;;;;;;;7.70;62.57;98103.23;220676;1271;25403;-70
2022/02/20 12:58:10;;;;;;;3.80;2.10;;;;;;;7.83;63.25;98099.89;220769;1271;22650;-69
2022/02/20 13:03:20;;;;;;;4.70;1.70;;;;;;;8.03;62.59;98100.05;219783;1271;22700;-70
2022/02/20 13:09:01;;;;;;;2.60;1.70;;;;;;;8.10;61.12;98094.45;219547;1271;22732;-70
2022/02/20 13:14:31;;;;;;;;;;;;;;;;;;;;;
2022/02/20 13:19:45;;;;;;;2.20;1.50;;;;;;;8.43;60.87;98095.80;221082;1270;25377;-70
2022/02/20 13:25:16;;;;;;;3.60;1.70;;;;;;;8.54;59.57;98099.66;220303;1271;22556;-70
2022/02/20 13:30:50;;;;;;;2.10;1.30;;;;;;;8.51;58.31;98099.53;220393;1271;22722;-70
2022/02/20 13:35:59;;;;;;;2.70;1.30;;;;;;;8.45;58.90;98101.77;220357;1271;22564;-69
2022/02/20 13:41:38;;;;;;;2.90;1.80;;;;;;;8.45;57.93;98101.02;219638;1271;25383;-70
2022/02/20 13:46:51;;;;;;;3.30;2.10;;;;;;;8.39;57.98;98096.80;219458;1271;22525;-70
2022/02/20 13:52:02;;;;;;;2.80;1.50;;;;;;;8.37;58.20;98094.02;219598;1271;24770;-70
2022/02/20 13:57:30;;;;;;;2.30;1.20;;;;;;;8.35;57.91;98090.42;219426;1271;25267;-70
2022/02/20 14:02:33;;;;;;;4.40;2.10;;;;;;;8.39;58.23;98080.80;220932;1271;22563;-71
2022/02/20 14:07:45;;;;;;;2.70;1.40;;;;;;;8.46;58.35;98083.23;220827;1271;24247;-70
2022/02/20 14:12:48;;;;;;;3.10;1.90;;;;;;;8.45;58.35;98087.71;220827;1271;22566;-70
2022/02/20 14:17:58;;;;;;;7.20;2.30;;;;;;;8.39;58.12;98086.25;220702;1271;23554;-71
2022/02/20 14:23:15;;;;;;;3.10;1.80;;;;;;;8.37;58.60;98073.36;220774;1271;22567;-71
2022/02/20 14:28:54;;;;;;;2.40;1.40;;;;;;;8.44;58.23;98068.52;220303;1271;23332;-69
2022/02/20 14:34:01;;;;;;;3.30;1.60;;;;;;;8.50;57.70;98061.48;220509;1271;25624;-70
2022/02/20 14:39:06;;;;;;;2.20;1.30;;;;;;;8.42;57.30;98049.91;220761;1271;23255;-69
2022/02/20 14:44:11;;;;;;;3.00;1.70;;;;;;;8.20;56.83;98054.99;219699;1271;25323;-70
2022/02/20 14:49:35;;;;;;;2.90;1.20;;;;;;;7.99;57.17;98053.91;219617;1271;26541;-69
2022/02/20 14:55:00;;;;;;;2.50;1.10;;;;;;;7.81;57.50;98050.33;219603;1271;25506;-71
2022/02/20 15:00:10;;;;;;;5.80;2.70;;;;;;;7.73;57.97;98043.17;219752;1271;22538;-70
2022/02/20 15:05:27;;;;;;;3.10;1.30;;;;;;;7.66;57.70;98033.45;219551;1271;22973;-70
2022/02/20 15:10:34;;;;;;;3.30;1.70;;;;;;;7.57;57.88;98033.23;220308;1271;22733;-69
2022/02/20 15:15:37;;;;;;;3.70;1.70;;;;;;;7.43;56.55;98025.00;219395;1271;22561;-71
2022/02/20 15:20:51;;;;;;;;;;;;;;;7.32;56.65;98020.35;219578;1271;24380;-70
2022/02/20 15:25:56;;;;;;;1.30;1.10;;;;;;;7.23;56.73;98012.45;219671;1271;22563;-69
2022/02/20 15:31:06;;;;;;;3.70;1.80;;;;;;;7.16;57.45;98010.30;219638;1271;25374;-70
2022/02/20 15:36:14;;;;;;;4.20;2.10;;;;;;;7.08;57.89;97997.34;219495;1271;24255;-70
2022/02/20 15:41:25;;;;;;;6.30;3.20;;;;;;;7.00;58.16;97986.67;219572;1271;22586;-70
2022/02/20 15:46:36;;;;;;;3.10;1.70;;;;;;;6.94;58.45;97981.89;219273;1273;25316;-69
2022/02/20 15:51:39;;;;;;;4.40;2.20;;;;;;;6.87;58.72;97978.98;219583;1273;22665;-69
2022/02/20 15:56:48;;;;;;;3.00;2.00;;;;;;;6.83;58.82;97970.50;220098;1271;25383;-70
2022/02/20 16:02:00;;;;;;;4.90;2.10;;;;;;;6.79;58.98;97967.24;220782;1271;22786;-70
2022/02/20 16:07:09;;;;;;;5.90;2.40;;;;;;;6.76;59.55;97960.09;220461;1271;25401;-70
2022/02/20 16:12:37;;;;;;;;;;;;;;;;;;;;;
2022/02/20 16:17:40;;;;;;;5.40;3.00;;;;;;;6.66;60.51;97957.64;220800;1272;24256;-70
2022/02/20 16:23:06;;;;;;;;;;;;;;;;;;;;;
2022/02/20 16:28:35;;;;;;;5.60;2.40;;;;;;;6.55;61.50;97954.50;220009;1271;25331;-70
2022/02/20 16:33:58;;;;;;;5.20;2.50;;;;;;;6.51;61.49;97947.64;219573;1271;22553;-70
2022/02/20 16:39:19;;;;;;;10.80;6.30;;;;;;;6.48;62.11;97944.56;220296;1271;23094;-70
2022/02/20 16:44:27;;;;;;;7.50;3.80;;;;;;;6.51;62.15;97948.10;220471;1271;25408;-70
2022/02/20 16:49:32;;;;;;;5.40;2.50;;;;;;;6.53;62.07;97953.20;219669;1271;25264;-69
2022/02/20 16:55:15;;;;;;;6.00;3.10;;;;;;;6.50;62.47;97951.09;219773;1271;22677;-71
2022/02/20 17:00:43;;;;;;;5.20;2.90;;;;;;;6.48;62.24;97933.08;219953;1274;22680;-69
2022/02/20 17:06:04;;;;;;;6.10;3.10;;;;;;;6.46;62.36;97925.12;220228;1271;22540;-70
2022/02/20 17:11:09;;;;;;;;;;;;;;;6.45;62.01;97915.12;220531;1271;22597;-71
2022/02/20 17:16:26;;;;;;;5.20;3.00;;;;;;;6.51;62.00;97917.73;220529;1271;24259;-70
2022/02/20 17:21:35;;;;;;;6.30;2.80;;;;;;;6.63;61.47;97916.00;220162;1271;24294;-71
2022/02/20 17:26:42;;;;;;;6.30;3.30;;;;;;;6.71;61.34;97909.48;220428;1271;22636;-69
2022/02/20 17:31:54;;;;;;;8.80;3.60;;;;;;;6.72;61.27;97911.27;219616;1271;24426;-70
2022/02/20 17:37:10;;;;;;;5.80;3.10;;;;;;;6.76;61.54;97912.39;219463;1271;24309;-69
2022/02/20 17:42:29;;;;;;;5.30;2.90;;;;;;;6.72;62.85;97918.23;220454;1271;22554;-70
2022/02/20 17:47:34;;;;;;;5.30;2.30;;;;;;;6.60;64.47;97914.16;220479;1271;22495;-70
2022/02/20 17:53:01;;;;;;;4.20;2.40;;;;;;;6.46;67.01;97915.23;220371;1271;22566;-71
2022/02/20 18:05:09;;;;;;;5.80;2.90;;;;;;;6.09;69.46;97913.70;219486;1274;22541;-70
2022/02/20 18:10:16;;;;;;;8.20;4.10;;;;;;;5.94;70.77;97913.02;220685;1271;22740;-69
2022/02/20 18:15:29;;;;;;;6.30;3.40;;;;;;;5.79;71.99;97903.08;220253;1271;26388;-70
2022/02/20 18:20:33;;;;;;;7.30;3.10;;;;;;;5.69;73.08;97900.55;220380;1273;24234;-70
2022/02/20 18:25:37;;;;;;;4.80;2.70;;;;;;;5.62;72.86;97899.75;220325;1274;25164;-70
2022/02/20 18:30:40;;;;;;;3.60;2.20;;;;;;;5.59;74.38;97893.72;219581;1274;22549;-70
2022/02/20 18:35:43;;;;;;;4.20;2.30;;;;;;;5.56;74.65;97886.45;219962;1274;22505;-70
2022/02/20 18:40:47;;;;;;;7.20;3.50;;;;;;;5.50;75.38;97876.09;219969;1274;22655;-68
2022/02/20 18:45:54;;;;;;;6.10;2.80;;;;;;;5.46;75.78;97879.15;219472;1271;25433;-70
2022/02/20 18:50:58;;;;;;;6.20;3.00;;;;;;;5.44;75.71;97873.58;219122;1274;22567;-70
2022/02/20 18:56:00;;;;;;;5.40;2.90;;;;;;;5.43;77.00;97866.05;219610;1271;25579;-70
2022/02/20 19:01:20;;;;;;;7.70;3.40;;;;;;;5.44;77.82;97863.06;219722;1271;22737;-70
2022/02/20 19:06:34;;;;;;;7.10;2.70;;;;;;;5.45;77.79;97856.37;219480;1271;22569;-70
2022/02/20 19:11:47;;;;;;;6.70;2.50;;;;;;;5.46;77.92;97856.83;220310;1271;26554;-70
2022/02/20 19:16:53;;;;;;;5.50;2.50;;;;;;;5.52;77.70;97849.26;220168;1271;22718;-69
2022/02/20 19:22:23;;;;;;;4.70;2.50;;;;;;;5.56;77.40;97850.33;219334;1271;204337;-71
2022/02/20 19:27:29;;;;;;;8.30;4.00;;;;;;;5.56;77.03;97844.43;220486;1274;25267;-70
2022/02/20 19:33:03;;;;;;;6.00;3.00;;;;;;;5.58;77.40;97833.15;220017;1274;22570;-70
2022/02/20 19:38:24;;;;;;;;;;;;;;;5.59;77.34;97829.22;220572;1273;22530;-70
2022/02/20 19:43:47;;;;;;;5.70;2.60;;;;;;;5.59;77.49;97820.23;220420;1274;22575;-70
2022/02/20 19:48:53;;;;;;;4.10;2.00;;;;;;;5.63;77.54;97810.90;220379;1273;25325;-71
2022/02/20 19:54:04;;;;;;;7.10;4.00;;;;;;;5.65;77.04;97808.11;219292;1272;25467;-69
2022/02/20 19:59:12;;;;;;;8.80;4.00;;;;;;;5.65;76.82;97804.35;219752;1274;25072;-70
2022/02/20 20:04:19;;;;;;;4.30;2.20;;;;;;;5.64;76.60;97794.02;219205;1274;23805;-71
2022/02/20 20:09:21;;;;;;;4.50;2.30;;;;;;;5.66;76.50;97793.54;219490;1274;26381;-69
2022/02/20 20:14:25;;;;;;;4.60;2.30;;;;;;;5.70;76.55;97793.35;219735;1271;22574;-69
2022/02/20 20:19:36;;;;;;;5.40;2.50;;;;;;;5.71;76.13;97787.64;220893;1271;25287;-70
2022/02/20 20:24:43;;;;;;;4.20;2.10;;;;;;;5.72;75.78;97779.52;220562;1271;25493;-70
2022/02/20 20:29:48;;;;;;;7.40;2.80;;;;;;;5.76;75.99;97777.88;220384;1274;22573;-70
2022/02/20 20:34:51;;;;;;;5.50;2.70;;;;;;;5.86;75.75;97779.01;220426;1274;26509;-71
2022/02/20 20:40:10;;;;;;;6.40;2.60;;;;;;;5.92;75.21;97776.70;219589;1271;22572;-70
2022/02/20 20:45:12;;;;;;;5.40;3.10;;;;;;;5.97;75.30;97771.14;219427;1271;22545;-70
2022/02/20 20:50:21;;;;;;;7.00;3.10;;;;;;;5.99;75.01;97765.46;219581;1271;25499;-71
2022/02/20 20:55:38;;;;;;;4.70;2.70;;;;;;;5.99;74.95;97745.66;219462;1271;22577;-69
2022/02/20 21:00:41;;;;;;;5.90;2.70;;;;;;;5.99;74.56;97725.47;219760;1271;22549;-70
2022/02/20 21:05:51;;;;;;;7.40;3.10;;;;;;;5.91;74.40;97713.45;220365;1273;23226;-69
2022/02/20 21:11:05;;;;;;;7.00;2.40;;;;;;;5.84;74.76;97705.66;220335;1271;25223;-68
2022/02/20 21:16:28;;;;;;;6.00;2.60;;;;;;;5.86;74.78;97702.40;219815;1271;22543;-70
2022/02/20 21:21:54;;;;;;;4.40;2.50;;;;;;;5.94;74.80;97695.78;220037;1271;22670;-69
2022/02/20 21:27:00;;;;;;;5.40;2.40;;;;;;;6.05;74.65;97691.00;219808;1271;22571;-71
2022/02/20 21:32:03;;;;;;;2.90;1.90;;;;;;;6.13;74.46;97678.19;220296;1272;22593;-69
2022/02/20 21:37:29;;;;;;;6.50;2.50;;;;;;;6.23;74.12;97663.38;219522;1271;22537;-69
2022/02/20 21:42:36;;;;;;;4.70;2.30;;;;;;;6.29;74.08;97647.70;219789;1271;23948;-70
2022/02/20 21:47:44;;;;;;;6.70;2.30;;;;;;;6.35;74.05;97642.30;220118;1271;22704;-70
2022/02/20 21:52:59;;;;;;;5.30;2.00;;;;;;;6.43;73.62;97635.59;220232;1271;22566;-71
2022/02/20 21:58:06;;;;;;;3.90;1.90;;;;;;;6.46;73.24;97620.97;219887;1273;22674;-69
2022/02/20 22:03:18;;;;;;;5.90;2.40;;;;;;;6.46;72.78;97601.98;219625;1273;24639;-70
2022/02/20 22:08:24;;;;;;;4.10;2.00;;;;;;;6.43;72.64;97594.89;219804;1271;25859;-70
2022/02/20 22:13:28;;;;;;;3.80;1.80;;;;;;;6.38;72.46;97577.32;219920;1271;22542;-69
2022/02/20 22:18:33;;;;;;;3.70;1.90;;;;;;;6.36;72.05;97579.63;219782;1271;22561;-70
2022/02/20 22:23:55;;;;;;;4.10;2.00;;;;;;;6.38;72.05;97560.34;220715;1271;22591;-70
2022/02/20 22:28:58;;;;;;;3.70;1.60;;;;;;;6.44;71.49;97550.55;220108;1271;22591;-70
2022/02/20 22:34:04;;;;;;;4.60;1.40;;;;;;;6.53;71.55;97548.71;219752;1271;24227;-69
2022/02/20 22:39:31;;;;;;;3.80;2.10;;;;;;;6.62;71.02;97543.23;220137;1271;22577;-70
2022/02/20 22:44:38;;;;;;;3.80;1.90;;;;;;;6.69;70.51;97541.79;219846;1271;22552;-70
2022/02/20 22:50:08;;;;;;;5.70;1.70;;;;;;;6.73;70.16;97529.80;220478;1271;24170;-70
2022/02/20 22:56:03;;;;;;;3.00;1.50;;;;;;;6.78;69.90;97524.91;220567;1271;22554;-70
2022/02/20 23:01:41;;;;;;;3.00;1.40;;;;;;;6.82;69.91;97515.26;220661;1271;24250;-69
2022/02/20 23:07:23;;;;;;;2.50;1.50;;;;;;;6.91;69.52;97495.19;219559;1271;23812;-70
2022/02/20 23:18:03;;;;;;;2.40;1.00;;;;;;;7.06;68.82;97488.25;220695;1271;22737;-70
2022/02/20 23:23:13;;;;;;;2.20;1.00;;;;;;;7.16;68.57;97479.15;220742;1271;22541;-70
2022/02/20 23:28:38;;;;;;;3.30;1.50;;;;;;;7.26;68.35;97478.84;220607;1270;22715;-70
2022/02/20 23:34:08;;;;;;;2.50;1.00;;;;;;;7.33;68.41;97465.02;219433;1273;22589;-70
2022/02/20 23:39:17;;;;;;;2.40;1.30;;;;;;;7.40;67.94;97458.86;219986;1271;22880;-70
2022/02/20 23:44:40;;;;;;;1.30;0.80;;;;;;;7.42;67.47;97452.39;220066;1271;22573;-69
2022/02/20 23:50:14;;;;;;;1.30;0.90;;;;;;;7.47;67.52;97436.52;219877;1271;22607;-70
2022/02/20 23:55:30;;;;;;;1.30;0.60;;;;;;;7.50;67.04;97421.95;219416;1271;22623;-70
